sensor_id;sensor_type;location;lat;lon;timestamp;P1;durP1;ratioP1;P2;durP2;ratioP2
49109;SDS011;34921;52.320;16.142;2023-08-20T00:00:14;20.23;;;14.18;;
49109;SDS011;34921;52.320;16.142;2023-08-20T00:03:03;18.95;;;14.25;;
49109;SDS011;34921;52.320;16.142;2023-08-20T00:05:32;18.15;;;13.65;;
49109;SDS011;34921;52.320;16.142;2023-08-20T00:08:00;18.57;;;14.45;;
49109;SDS011;34921;52.320;16.142;2023-08-20T00:10:29;15.70;;;13.95;;
49109;SDS011;34921;52.320;16.142;2023-08-20T00:12:57;18.85;;;13.72;;
49109;SDS011;34921;52.320;16.142;2023-08-20T00:15:25;17.48;;;13.53;;
49109;SDS011;34921;52.320;16.142;2023-08-20T00:17:54;17.10;;;13.98;;
49109;SDS011;34921;52.320;16.142;2023-08-20T00:20:23;16.45;;;14.07;;
49109;SDS011;34921;52.320;16.142;2023-08-20T00:22:52;16.57;;;13.38;;
49109;SDS011;34921;52.320;16.142;2023-08-20T00:25:20;15.55;;;12.50;;
49109;SDS011;34921;52.320;16.142;2023-08-20T00:27:48;18.52;;;13.15;;
49109;SDS011;34921;52.320;16.142;2023-08-20T00:30:16;16.30;;;14.00;;
49109;SDS011;34921;52.320;16.142;2023-08-20T00:32:44;14.83;;;12.95;;
49109;SDS011;34921;52.320;16.142;2023-08-20T00:35:12;17.90;;;13.77;;
49109;SDS011;34921;52.320;16.142;2023-08-20T00:37:40;15.72;;;13.10;;
49109;SDS011;34921;52.320;16.142;2023-08-20T00:40:08;17.70;;;15.30;;
49109;SDS011;34921;52.320;16.142;2023-08-20T00:42:37;16.60;;;13.75;;
49109;SDS011;34921;52.320;16.142;2023-08-20T00:45:05;18.60;;;14.50;;
49109;SDS011;34921;52.320;16.142;2023-08-20T00:47:34;17.00;;;13.30;;
49109;SDS011;34921;52.320;16.142;2023-08-20T00:50:02;14.93;;;13.40;;
49109;SDS011;34921;52.320;16.142;2023-08-20T00:52:36;16.90;;;13.75;;
49109;SDS011;34921;52.320;16.142;2023-08-20T00:55:09;18.65;;;13.93;;
49109;SDS011;34921;52.320;16.142;2023-08-20T00:57:38;20.12;;;14.00;;
49109;SDS011;34921;52.320;16.142;2023-08-20T01:00:06;16.70;;;14.23;;
49109;SDS011;34921;52.320;16.142;2023-08-20T01:02:39;17.15;;;14.15;;
49109;SDS011;34921;52.320;16.142;2023-08-20T01:05:08;17.30;;;13.65;;
49109;SDS011;34921;52.320;16.142;2023-08-20T01:07:48;18.87;;;13.45;;
49109;SDS011;34921;52.320;16.142;2023-08-20T01:10:47;18.10;;;14.58;;
49109;SDS011;34921;52.320;16.142;2023-08-20T01:13:33;16.25;;;13.62;;
49109;SDS011;34921;52.320;16.142;2023-08-20T01:16:01;15.25;;;13.53;;
49109;SDS011;34921;52.320;16.142;2023-08-20T01:18:29;16.97;;;14.18;;
49109;SDS011;34921;52.320;16.142;2023-08-20T01:21:04;15.68;;;13.30;;
49109;SDS011;34921;52.320;16.142;2023-08-20T01:29:09;14.93;;;13.40;;
49109;SDS011;34921;52.320;16.142;2023-08-20T01:31:38;17.42;;;12.55;;
49109;SDS011;34921;52.320;16.142;2023-08-20T01:34:07;15.90;;;13.05;;
49109;SDS011;34921;52.320;16.142;2023-08-20T01:36:35;15.70;;;13.48;;
49109;SDS011;34921;52.320;16.142;2023-08-20T01:39:03;16.45;;;12.88;;
49109;SDS011;34921;52.320;16.142;2023-08-20T01:41:32;15.48;;;12.45;;
49109;SDS011;34921;52.320;16.142;2023-08-20T01:44:00;14.95;;;12.60;;
49109;SDS011;34921;52.320;16.142;2023-08-20T01:46:28;15.80;;;12.88;;
49109;SDS011;34921;52.320;16.142;2023-08-20T01:48:56;15.03;;;12.82;;
49109;SDS011;34921;52.320;16.142;2023-08-20T01:51:24;16.87;;;12.07;;
49109;SDS011;34921;52.320;16.142;2023-08-20T01:53:52;18.85;;;13.43;;
49109;SDS011;34921;52.320;16.142;2023-08-20T01:56:20;16.63;;;13.13;;
49109;SDS011;34921;52.320;16.142;2023-08-20T01:58:48;18.12;;;13.18;;
49109;SDS011;34921;52.320;16.142;2023-08-20T02:01:16;18.37;;;13.22;;
49109;SDS011;34921;52.320;16.142;2023-08-20T02:03:44;16.67;;;13.13;;
49109;SDS011;34921;52.320;16.142;2023-08-20T02:06:12;14.23;;;12.50;;
49109;SDS011;34921;52.320;16.142;2023-08-20T02:08:40;17.55;;;13.60;;
49109;SDS011;34921;52.320;16.142;2023-08-20T02:11:08;14.53;;;12.82;;
49109;SDS011;34921;52.320;16.142;2023-08-20T02:13:36;15.28;;;12.88;;
49109;SDS011;34921;52.320;16.142;2023-08-20T02:16:04;16.57;;;13.20;;
49109;SDS011;34921;52.320;16.142;2023-08-20T02:18:32;15.75;;;12.35;;
49109;SDS011;34921;52.320;16.142;2023-08-20T02:21:00;17.02;;;13.18;;
49109;SDS011;34921;52.320;16.142;2023-08-20T02:23:28;18.10;;;14.03;;
49109;SDS011;34921;52.320;16.142;2023-08-20T02:25:56;17.70;;;13.53;;
49109;SDS011;34921;52.320;16.142;2023-08-20T02:28:25;19.32;;;14.20;;
49109;SDS011;34921;52.320;16.142;2023-08-20T02:30:53;17.17;;;12.85;;
49109;SDS011;34921;52.320;16.142;2023-08-20T02:33:21;15.75;;;12.90;;
49109;SDS011;34921;52.320;16.142;2023-08-20T02:35:49;18.95;;;13.35;;
49109;SDS011;34921;52.320;16.142;2023-08-20T02:38:17;21.07;;;13.62;;
49109;SDS011;34921;52.320;16.142;2023-08-20T02:40:45;19.82;;;12.65;;
49109;SDS011;34921;52.320;16.142;2023-08-20T02:43:13;15.68;;;12.53;;
49109;SDS011;34921;52.320;16.142;2023-08-20T02:45:41;15.70;;;12.40;;
49109;SDS011;34921;52.320;16.142;2023-08-20T02:48:10;16.12;;;12.58;;
49109;SDS011;34921;52.320;16.142;2023-08-20T02:50:38;14.90;;;12.05;;
49109;SDS011;34921;52.320;16.142;2023-08-20T02:53:06;15.80;;;12.47;;
49109;SDS011;34921;52.320;16.142;2023-08-20T02:55:34;17.48;;;13.00;;
49109;SDS011;34921;52.320;16.142;2023-08-20T02:58:06;15.88;;;12.90;;
49109;SDS011;34921;52.320;16.142;2023-08-20T03:00:37;16.75;;;13.18;;
49109;SDS011;34921;52.320;16.142;2023-08-20T03:03:05;15.90;;;13.60;;
49109;SDS011;34921;52.320;16.142;2023-08-20T03:05:35;15.10;;;12.37;;
49109;SDS011;34921;52.320;16.142;2023-08-20T03:08:03;14.95;;;12.93;;
49109;SDS011;34921;52.320;16.142;2023-08-20T03:10:32;17.87;;;13.85;;
49109;SDS011;34921;52.320;16.142;2023-08-20T03:13:00;16.37;;;13.13;;
49109;SDS011;34921;52.320;16.142;2023-08-20T03:15:29;17.00;;;13.10;;
49109;SDS011;34921;52.320;16.142;2023-08-20T03:17:57;17.65;;;13.98;;
49109;SDS011;34921;52.320;16.142;2023-08-20T03:20:25;15.48;;;13.18;;
49109;SDS011;34921;52.320;16.142;2023-08-20T03:22:54;16.87;;;13.28;;
49109;SDS011;34921;52.320;16.142;2023-08-20T03:25:22;15.72;;;13.90;;
49109;SDS011;34921;52.320;16.142;2023-08-20T03:27:51;14.25;;;12.60;;
49109;SDS011;34921;52.320;16.142;2023-08-20T03:30:19;14.13;;;12.73;;
49109;SDS011;34921;52.320;16.142;2023-08-20T03:32:47;17.20;;;13.30;;
49109;SDS011;34921;52.320;16.142;2023-08-20T03:35:15;14.55;;;13.00;;
49109;SDS011;34921;52.320;16.142;2023-08-20T03:37:43;14.45;;;11.93;;
49109;SDS011;34921;52.320;16.142;2023-08-20T03:40:11;15.10;;;13.50;;
49109;SDS011;34921;52.320;16.142;2023-08-20T03:42:39;15.18;;;13.53;;
49109;SDS011;34921;52.320;16.142;2023-08-20T03:45:07;15.80;;;13.32;;
49109;SDS011;34921;52.320;16.142;2023-08-20T03:47:36;14.50;;;12.90;;
49109;SDS011;34921;52.320;16.142;2023-08-20T03:50:04;15.95;;;13.15;;
49109;SDS011;34921;52.320;16.142;2023-08-20T03:52:32;16.73;;;13.15;;
49109;SDS011;34921;52.320;16.142;2023-08-20T03:55:00;14.25;;;12.75;;
49109;SDS011;34921;52.320;16.142;2023-08-20T03:57:28;15.28;;;13.32;;
49109;SDS011;34921;52.320;16.142;2023-08-20T03:59:56;15.13;;;12.35;;
49109;SDS011;34921;52.320;16.142;2023-08-20T04:02:24;14.38;;;12.45;;
49109;SDS011;34921;52.320;16.142;2023-08-20T04:04:52;18.12;;;13.28;;
49109;SDS011;34921;52.320;16.142;2023-08-20T04:07:20;16.40;;;13.32;;
49109;SDS011;34921;52.320;16.142;2023-08-20T04:09:48;16.40;;;12.73;;
49109;SDS011;34921;52.320;16.142;2023-08-20T04:12:16;15.40;;;13.03;;
49109;SDS011;34921;52.320;16.142;2023-08-20T04:14:44;13.93;;;12.43;;
49109;SDS011;34921;52.320;16.142;2023-08-20T04:17:12;17.65;;;12.85;;
49109;SDS011;34921;52.320;16.142;2023-08-20T04:19:40;14.50;;;11.95;;
49109;SDS011;34921;52.320;16.142;2023-08-20T04:22:07;14.93;;;12.28;;
49109;SDS011;34921;52.320;16.142;2023-08-20T04:24:35;16.40;;;12.65;;
49109;SDS011;34921;52.320;16.142;2023-08-20T04:27:03;13.22;;;11.88;;
49109;SDS011;34921;52.320;16.142;2023-08-20T04:29:31;15.68;;;14.03;;
49109;SDS011;34921;52.320;16.142;2023-08-20T04:32:00;15.68;;;12.70;;
49109;SDS011;34921;52.320;16.142;2023-08-20T04:34:28;16.42;;;13.08;;
49109;SDS011;34921;52.320;16.142;2023-08-20T04:36:55;17.80;;;14.43;;
49109;SDS011;34921;52.320;16.142;2023-08-20T04:39:23;14.10;;;12.70;;
49109;SDS011;34921;52.320;16.142;2023-08-20T04:41:51;17.00;;;13.58;;
49109;SDS011;34921;52.320;16.142;2023-08-20T04:44:19;14.28;;;12.78;;
49109;SDS011;34921;52.320;16.142;2023-08-20T04:46:47;13.98;;;12.55;;
49109;SDS011;34921;52.320;16.142;2023-08-20T04:49:15;17.07;;;13.65;;
49109;SDS011;34921;52.320;16.142;2023-08-20T04:51:43;17.87;;;13.48;;
49109;SDS011;34921;52.320;16.142;2023-08-20T04:54:11;16.48;;;13.13;;
49109;SDS011;34921;52.320;16.142;2023-08-20T04:56:39;14.73;;;12.43;;
49109;SDS011;34921;52.320;16.142;2023-08-20T04:59:07;15.43;;;13.20;;
49109;SDS011;34921;52.320;16.142;2023-08-20T05:01:34;15.53;;;13.78;;
49109;SDS011;34921;52.320;16.142;2023-08-20T05:04:02;15.70;;;13.10;;
49109;SDS011;34921;52.320;16.142;2023-08-20T05:06:31;15.75;;;13.35;;
49109;SDS011;34921;52.320;16.142;2023-08-20T05:08:58;18.42;;;14.50;;
49109;SDS011;34921;52.320;16.142;2023-08-20T05:11:26;16.73;;;13.60;;
49109;SDS011;34921;52.320;16.142;2023-08-20T05:13:55;15.72;;;14.03;;
49109;SDS011;34921;52.320;16.142;2023-08-20T05:16:23;13.83;;;12.37;;
49109;SDS011;34921;52.320;16.142;2023-08-20T05:18:51;16.67;;;13.85;;
49109;SDS011;34921;52.320;16.142;2023-08-20T05:21:19;16.23;;;13.03;;
49109;SDS011;34921;52.320;16.142;2023-08-20T05:23:47;15.98;;;13.15;;
49109;SDS011;34921;52.320;16.142;2023-08-20T05:26:15;16.93;;;13.78;;
49109;SDS011;34921;52.320;16.142;2023-08-20T05:28:43;16.97;;;15.15;;
49109;SDS011;34921;52.320;16.142;2023-08-20T05:31:11;17.27;;;14.07;;
49109;SDS011;34921;52.320;16.142;2023-08-20T05:33:39;15.05;;;13.45;;
49109;SDS011;34921;52.320;16.142;2023-08-20T05:36:07;14.68;;;12.73;;
49109;SDS011;34921;52.320;16.142;2023-08-20T05:38:34;16.82;;;14.20;;
49109;SDS011;34921;52.320;16.142;2023-08-20T05:41:02;17.20;;;13.15;;
49109;SDS011;34921;52.320;16.142;2023-08-20T05:43:30;16.90;;;13.03;;
49109;SDS011;34921;52.320;16.142;2023-08-20T05:45:58;17.48;;;13.35;;
49109;SDS011;34921;52.320;16.142;2023-08-20T05:48:26;15.98;;;13.93;;
49109;SDS011;34921;52.320;16.142;2023-08-20T05:50:54;15.60;;;13.83;;
49109;SDS011;34921;52.320;16.142;2023-08-20T05:53:22;14.60;;;12.60;;
49109;SDS011;34921;52.320;16.142;2023-08-20T05:55:50;17.10;;;13.03;;
49109;SDS011;34921;52.320;16.142;2023-08-20T05:58:18;14.83;;;13.35;;
49109;SDS011;34921;52.320;16.142;2023-08-20T06:00:46;15.80;;;14.13;;
49109;SDS011;34921;52.320;16.142;2023-08-20T06:03:14;15.80;;;14.20;;
49109;SDS011;34921;52.320;16.142;2023-08-20T06:05:42;16.50;;;14.07;;
49109;SDS011;34921;52.320;16.142;2023-08-20T06:08:10;16.85;;;14.25;;
49109;SDS011;34921;52.320;16.142;2023-08-20T06:10:38;17.02;;;14.65;;
49109;SDS011;34921;52.320;16.142;2023-08-20T06:13:06;16.42;;;14.83;;
49109;SDS011;34921;52.320;16.142;2023-08-20T06:15:34;19.85;;;15.95;;
49109;SDS011;34921;52.320;16.142;2023-08-20T06:18:02;20.85;;;14.95;;
49109;SDS011;34921;52.320;16.142;2023-08-20T06:20:31;18.30;;;15.43;;
49109;SDS011;34921;52.320;16.142;2023-08-20T06:22:59;18.17;;;16.15;;
49109;SDS011;34921;52.320;16.142;2023-08-20T06:25:27;18.67;;;16.80;;
49109;SDS011;34921;52.320;16.142;2023-08-20T06:27:55;19.30;;;16.32;;
49109;SDS011;34921;52.320;16.142;2023-08-20T06:30:24;18.57;;;16.67;;
49109;SDS011;34921;52.320;16.142;2023-08-20T06:32:52;17.98;;;16.07;;
49109;SDS011;34921;52.320;16.142;2023-08-20T06:35:20;26.30;;;21.25;;
49109;SDS011;34921;52.320;16.142;2023-08-20T06:37:48;26.93;;;19.90;;
49109;SDS011;34921;52.320;16.142;2023-08-20T06:40:16;22.27;;;18.95;;
49109;SDS011;34921;52.320;16.142;2023-08-20T06:42:44;24.40;;;19.10;;
49109;SDS011;34921;52.320;16.142;2023-08-20T06:45:12;20.75;;;18.07;;
49109;SDS011;34921;52.320;16.142;2023-08-20T06:47:41;23.02;;;19.77;;
49109;SDS011;34921;52.320;16.142;2023-08-20T06:50:09;25.97;;;23.27;;
49109;SDS011;34921;52.320;16.142;2023-08-20T06:52:37;25.20;;;22.50;;
49109;SDS011;34921;52.320;16.142;2023-08-20T06:55:05;23.45;;;20.97;;
49109;SDS011;34921;52.320;16.142;2023-08-20T06:57:34;20.85;;;18.75;;
49109;SDS011;34921;52.320;16.142;2023-08-20T07:00:02;18.82;;;16.90;;
49109;SDS011;34921;52.320;16.142;2023-08-20T07:02:33;23.55;;;19.17;;
49109;SDS011;34921;52.320;16.142;2023-08-20T07:05:01;21.97;;;18.48;;
49109;SDS011;34921;52.320;16.142;2023-08-20T07:07:30;19.55;;;17.40;;
49109;SDS011;34921;52.320;16.142;2023-08-20T07:09:58;19.55;;;16.95;;
49109;SDS011;34921;52.320;16.142;2023-08-20T07:12:26;20.12;;;18.02;;
49109;SDS011;34921;52.320;16.142;2023-08-20T07:14:54;19.20;;;17.20;;
49109;SDS011;34921;52.320;16.142;2023-08-20T07:17:23;21.27;;;16.93;;
49109;SDS011;34921;52.320;16.142;2023-08-20T07:19:51;21.23;;;17.55;;
49109;SDS011;34921;52.320;16.142;2023-08-20T07:22:19;19.20;;;17.27;;
49109;SDS011;34921;52.320;16.142;2023-08-20T07:24:47;20.20;;;16.70;;
49109;SDS011;34921;52.320;16.142;2023-08-20T07:27:15;19.67;;;17.57;;
49109;SDS011;34921;52.320;16.142;2023-08-20T07:29:43;20.05;;;16.82;;
49109;SDS011;34921;52.320;16.142;2023-08-20T07:32:11;20.32;;;18.17;;
49109;SDS011;34921;52.320;16.142;2023-08-20T07:34:40;19.55;;;16.45;;
49109;SDS011;34921;52.320;16.142;2023-08-20T07:37:08;17.90;;;15.85;;
49109;SDS011;34921;52.320;16.142;2023-08-20T07:39:36;18.95;;;16.90;;
49109;SDS011;34921;52.320;16.142;2023-08-20T07:42:04;19.37;;;17.37;;
49109;SDS011;34921;52.320;16.142;2023-08-20T07:44:33;20.20;;;17.45;;
49109;SDS011;34921;52.320;16.142;2023-08-20T07:47:01;17.07;;;15.28;;
49109;SDS011;34921;52.320;16.142;2023-08-20T07:49:29;18.23;;;16.02;;
49109;SDS011;34921;52.320;16.142;2023-08-20T07:51:57;17.90;;;16.10;;
49109;SDS011;34921;52.320;16.142;2023-08-20T07:54:25;17.87;;;15.98;;
49109;SDS011;34921;52.320;16.142;2023-08-20T07:56:55;16.73;;;15.13;;
49109;SDS011;34921;52.320;16.142;2023-08-20T07:59:24;16.45;;;14.78;;
49109;SDS011;34921;52.320;16.142;2023-08-20T08:01:52;16.75;;;14.43;;
49109;SDS011;34921;52.320;16.142;2023-08-20T08:04:20;14.30;;;12.90;;
49109;SDS011;34921;52.320;16.142;2023-08-20T08:06:48;13.90;;;12.60;;
49109;SDS011;34921;52.320;16.142;2023-08-20T08:09:20;14.85;;;13.00;;
49109;SDS011;34921;52.320;16.142;2023-08-20T08:11:54;15.05;;;13.60;;
49109;SDS011;34921;52.320;16.142;2023-08-20T08:14:22;14.23;;;12.88;;
49109;SDS011;34921;52.320;16.142;2023-08-20T08:16:51;15.05;;;13.55;;
49109;SDS011;34921;52.320;16.142;2023-08-20T08:19:19;14.35;;;11.78;;
49109;SDS011;34921;52.320;16.142;2023-08-20T08:21:48;13.45;;;11.48;;
49109;SDS011;34921;52.320;16.142;2023-08-20T08:24:16;13.00;;;11.63;;
49109;SDS011;34921;52.320;16.142;2023-08-20T08:26:44;12.93;;;11.43;;
49109;SDS011;34921;52.320;16.142;2023-08-20T08:29:12;11.57;;;10.48;;
49109;SDS011;34921;52.320;16.142;2023-08-20T08:31:41;13.90;;;10.98;;
49109;SDS011;34921;52.320;16.142;2023-08-20T08:34:09;14.93;;;10.95;;
49109;SDS011;34921;52.320;16.142;2023-08-20T08:36:37;11.15;;;8.98;;
49109;SDS011;34921;52.320;16.142;2023-08-20T08:39:05;10.82;;;9.30;;
49109;SDS011;34921;52.320;16.142;2023-08-20T08:41:35;10.08;;;9.13;;
49109;SDS011;34921;52.320;16.142;2023-08-20T08:44:07;11.53;;;9.45;;
49109;SDS011;34921;52.320;16.142;2023-08-20T08:46:39;10.60;;;9.60;;
49109;SDS011;34921;52.320;16.142;2023-08-20T08:49:08;15.25;;;10.65;;
49109;SDS011;34921;52.320;16.142;2023-08-20T08:51:36;11.35;;;9.65;;
49109;SDS011;34921;52.320;16.142;2023-08-20T08:54:05;11.48;;;10.28;;
49109;SDS011;34921;52.320;16.142;2023-08-20T08:56:33;11.57;;;10.48;;
49109;SDS011;34921;52.320;16.142;2023-08-20T08:59:01;10.53;;;9.53;;
49109;SDS011;34921;52.320;16.142;2023-08-20T09:01:30;11.48;;;9.73;;
49109;SDS011;34921;52.320;16.142;2023-08-20T09:03:59;9.75;;;8.73;;
49109;SDS011;34921;52.320;16.142;2023-08-20T09:06:27;9.55;;;8.65;;
49109;SDS011;34921;52.320;16.142;2023-08-20T09:09:11;10.70;;;8.88;;
49109;SDS011;34921;52.320;16.142;2023-08-20T09:11:40;9.73;;;8.50;;
49109;SDS011;34921;52.320;16.142;2023-08-20T09:14:20;9.80;;;8.90;;
49109;SDS011;34921;52.320;16.142;2023-08-20T09:16:54;10.18;;;9.20;;
49109;SDS011;34921;52.320;16.142;2023-08-20T09:19:37;10.88;;;9.55;;
49109;SDS011;34921;52.320;16.142;2023-08-20T09:22:05;11.10;;;9.20;;
49109;SDS011;34921;52.320;16.142;2023-08-20T09:24:44;10.82;;;8.68;;
49109;SDS011;34921;52.320;16.142;2023-08-20T09:27:13;13.53;;;9.18;;
49109;SDS011;34921;52.320;16.142;2023-08-20T09:29:45;10.30;;;9.30;;
49109;SDS011;34921;52.320;16.142;2023-08-20T09:32:18;10.45;;;9.05;;
49109;SDS011;34921;52.320;16.142;2023-08-20T09:34:48;10.30;;;9.30;;
49109;SDS011;34921;52.320;16.142;2023-08-20T09:37:18;9.70;;;8.80;;
49109;SDS011;34921;52.320;16.142;2023-08-20T09:44:46;8.03;;;7.22;;
49109;SDS011;34921;52.320;16.142;2023-08-20T09:47:16;9.58;;;8.05;;
49109;SDS011;34921;52.320;16.142;2023-08-20T09:49:46;8.90;;;8.10;;
49109;SDS011;34921;52.320;16.142;2023-08-20T09:52:38;8.25;;;7.50;;
49109;SDS011;34921;52.320;16.142;2023-08-20T09:55:08;8.63;;;7.08;;
49109;SDS011;34921;52.320;16.142;2023-08-20T09:57:38;8.90;;;6.78;;
49109;SDS011;34921;52.320;16.142;2023-08-20T10:00:08;7.53;;;6.83;;
49109;SDS011;34921;52.320;16.142;2023-08-20T10:02:38;7.65;;;6.47;;
49109;SDS011;34921;52.320;16.142;2023-08-20T10:05:07;7.15;;;6.25;;
49109;SDS011;34921;52.320;16.142;2023-08-20T10:07:37;7.47;;;6.65;;
49109;SDS011;34921;52.320;16.142;2023-08-20T10:10:07;7.07;;;6.37;;
49109;SDS011;34921;52.320;16.142;2023-08-20T10:12:41;7.10;;;6.42;;
49109;SDS011;34921;52.320;16.142;2023-08-20T10:15:14;7.20;;;6.22;;
49109;SDS011;34921;52.320;16.142;2023-08-20T10:17:44;8.00;;;6.60;;
49109;SDS011;34921;52.320;16.142;2023-08-20T10:20:13;6.90;;;6.30;;
49109;SDS011;34921;52.320;16.142;2023-08-20T10:22:43;8.45;;;6.83;;
49109;SDS011;34921;52.320;16.142;2023-08-20T10:25:21;7.35;;;6.65;;
49109;SDS011;34921;52.320;16.142;2023-08-20T10:27:53;7.78;;;7.08;;
49109;SDS011;34921;52.320;16.142;2023-08-20T10:30:25;7.17;;;6.47;;
49109;SDS011;34921;52.320;16.142;2023-08-20T10:32:55;7.87;;;6.85;;
49109;SDS011;34921;52.320;16.142;2023-08-20T10:35:28;6.80;;;6.20;;
49109;SDS011;34921;52.320;16.142;2023-08-20T10:38:14;7.53;;;6.72;;
49109;SDS011;34921;52.320;16.142;2023-08-20T10:40:55;7.30;;;6.55;;
49109;SDS011;34921;52.320;16.142;2023-08-20T10:48:33;6.78;;;6.08;;
49109;SDS011;34921;52.320;16.142;2023-08-20T10:51:46;7.67;;;6.28;;
49109;SDS011;34921;52.320;16.142;2023-08-20T10:56:48;7.25;;;6.55;;
49109;SDS011;34921;52.320;16.142;2023-08-20T11:01:51;7.25;;;6.55;;
49109;SDS011;34921;52.320;16.142;2023-08-20T11:04:25;6.80;;;6.10;;
49109;SDS011;34921;52.320;16.142;2023-08-20T11:06:59;7.28;;;6.30;;
49109;SDS011;34921;52.320;16.142;2023-08-20T11:09:28;7.00;;;6.30;;
49109;SDS011;34921;52.320;16.142;2023-08-20T11:14:27;7.78;;;6.37;;
49109;SDS011;34921;52.320;16.142;2023-08-20T11:16:55;6.97;;;6.28;;
49109;SDS011;34921;52.320;16.142;2023-08-20T11:19:24;7.77;;;7.00;;
49109;SDS011;34921;52.320;16.142;2023-08-20T11:21:52;7.20;;;6.50;;
49109;SDS011;34921;52.320;16.142;2023-08-20T11:24:20;7.58;;;6.87;;
49109;SDS011;34921;52.320;16.142;2023-08-20T11:26:48;8.80;;;7.00;;
49109;SDS011;34921;52.320;16.142;2023-08-20T11:29:16;7.33;;;6.62;;
49109;SDS011;34921;52.320;16.142;2023-08-20T11:31:50;7.70;;;6.95;;
49109;SDS011;34921;52.320;16.142;2023-08-20T11:34:19;7.78;;;6.97;;
49109;SDS011;34921;52.320;16.142;2023-08-20T11:36:47;6.80;;;6.20;;
49109;SDS011;34921;52.320;16.142;2023-08-20T11:39:15;7.03;;;6.30;;
49109;SDS011;34921;52.320;16.142;2023-08-20T11:41:44;7.15;;;6.55;;
49109;SDS011;34921;52.320;16.142;2023-08-20T11:44:18;7.60;;;6.80;;
49109;SDS011;34921;52.320;16.142;2023-08-20T11:46:48;7.78;;;7.08;;
49109;SDS011;34921;52.320;16.142;2023-08-20T11:49:16;7.33;;;6.62;;
49109;SDS011;34921;52.320;16.142;2023-08-20T11:51:47;7.45;;;6.75;;
49109;SDS011;34921;52.320;16.142;2023-08-20T11:54:16;7.60;;;6.55;;
49109;SDS011;34921;52.320;16.142;2023-08-20T11:56:45;9.20;;;7.60;;
49109;SDS011;34921;52.320;16.142;2023-08-20T11:59:18;9.45;;;7.50;;
49109;SDS011;34921;52.320;16.142;2023-08-20T12:02:05;7.28;;;6.58;;
49109;SDS011;34921;52.320;16.142;2023-08-20T12:04:33;7.70;;;6.90;;
49109;SDS011;34921;52.320;16.142;2023-08-20T12:07:05;8.98;;;7.15;;
49109;SDS011;34921;52.320;16.142;2023-08-20T12:09:37;9.18;;;7.37;;
49109;SDS011;34921;52.320;16.142;2023-08-20T12:12:05;8.88;;;7.78;;
49109;SDS011;34921;52.320;16.142;2023-08-20T12:14:35;8.78;;;7.42;;
49109;SDS011;34921;52.320;16.142;2023-08-20T12:17:03;8.80;;;8.00;;
49109;SDS011;34921;52.320;16.142;2023-08-20T12:22:05;9.35;;;8.45;;
49109;SDS011;34921;52.320;16.142;2023-08-20T12:24:33;8.25;;;7.45;;
49109;SDS011;34921;52.320;16.142;2023-08-20T12:27:01;8.38;;;7.58;;
49109;SDS011;34921;52.320;16.142;2023-08-20T12:29:31;8.75;;;7.90;;
49109;SDS011;34921;52.320;16.142;2023-08-20T12:31:59;8.98;;;8.15;;
49109;SDS011;34921;52.320;16.142;2023-08-20T12:34:28;10.05;;;7.22;;
49109;SDS011;34921;52.320;16.142;2023-08-20T12:36:57;7.85;;;7.12;;
49109;SDS011;34921;52.320;16.142;2023-08-20T12:39:25;7.80;;;7.10;;
49109;SDS011;34921;52.320;16.142;2023-08-20T12:41:53;9.95;;;7.40;;
49109;SDS011;34921;52.320;16.142;2023-08-20T12:44:21;8.38;;;7.03;;
49109;SDS011;34921;52.320;16.142;2023-08-20T12:46:49;8.90;;;7.72;;
49109;SDS011;34921;52.320;16.142;2023-08-20T12:49:18;10.33;;;7.30;;
49109;SDS011;34921;52.320;16.142;2023-08-20T12:51:46;8.60;;;7.70;;
49109;SDS011;34921;52.320;16.142;2023-08-20T12:57:57;9.53;;;7.10;;
49109;SDS011;34921;52.320;16.142;2023-08-20T13:00:26;10.03;;;7.53;;
49109;SDS011;34921;52.320;16.142;2023-08-20T13:02:55;8.28;;;6.85;;
49109;SDS011;34921;52.320;16.142;2023-08-20T13:05:23;7.55;;;6.58;;
49109;SDS011;34921;52.320;16.142;2023-08-20T13:07:52;9.63;;;6.80;;
49109;SDS011;34921;52.320;16.142;2023-08-20T13:10:21;7.75;;;6.15;;
49109;SDS011;34921;52.320;16.142;2023-08-20T13:12:52;7.97;;;6.70;;
49109;SDS011;34921;52.320;16.142;2023-08-20T13:15:21;6.85;;;6.25;;
49109;SDS011;34921;52.320;16.142;2023-08-20T13:17:50;7.03;;;6.37;;
49109;SDS011;34921;52.320;16.142;2023-08-20T13:20:18;9.15;;;6.72;;
49109;SDS011;34921;52.320;16.142;2023-08-20T13:22:51;7.45;;;6.65;;
49109;SDS011;34921;52.320;16.142;2023-08-20T13:25:19;8.23;;;7.13;;
49109;SDS011;34921;52.320;16.142;2023-08-20T13:27:50;8.23;;;6.78;;
49109;SDS011;34921;52.320;16.142;2023-08-20T13:30:18;7.92;;;6.42;;
49109;SDS011;34921;52.320;16.142;2023-08-20T13:32:46;7.28;;;6.58;;
49109;SDS011;34921;52.320;16.142;2023-08-20T13:35:14;8.38;;;6.90;;
49109;SDS011;34921;52.320;16.142;2023-08-20T13:37:42;10.58;;;6.53;;
49109;SDS011;34921;52.320;16.142;2023-08-20T13:40:11;8.18;;;6.62;;
49109;SDS011;34921;52.320;16.142;2023-08-20T13:42:39;7.78;;;6.95;;
49109;SDS011;34921;52.320;16.142;2023-08-20T13:45:07;8.48;;;6.90;;
49109;SDS011;34921;52.320;16.142;2023-08-20T13:47:35;10.40;;;7.22;;
49109;SDS011;34921;52.320;16.142;2023-08-20T13:50:03;10.58;;;7.12;;
49109;SDS011;34921;52.320;16.142;2023-08-20T13:52:32;8.60;;;6.78;;
49109;SDS011;34921;52.320;16.142;2023-08-20T13:54:59;8.98;;;6.42;;
49109;SDS011;34921;52.320;16.142;2023-08-20T13:57:27;6.92;;;6.22;;
49109;SDS011;34921;52.320;16.142;2023-08-20T13:59:55;7.40;;;6.03;;
49109;SDS011;34921;52.320;16.142;2023-08-20T14:02:23;8.03;;;6.78;;
49109;SDS011;34921;52.320;16.142;2023-08-20T14:04:51;9.65;;;6.65;;
49109;SDS011;34921;52.320;16.142;2023-08-20T14:07:19;7.92;;;6.62;;
49109;SDS011;34921;52.320;16.142;2023-08-20T14:09:47;6.83;;;5.97;;
49109;SDS011;34921;52.320;16.142;2023-08-20T14:12:17;6.10;;;5.43;;
49109;SDS011;34921;52.320;16.142;2023-08-20T14:14:47;8.90;;;5.28;;
49109;SDS011;34921;52.320;16.142;2023-08-20T14:17:15;7.17;;;5.28;;
49109;SDS011;34921;52.320;16.142;2023-08-20T14:19:46;8.65;;;5.30;;
49109;SDS011;34921;52.320;16.142;2023-08-20T14:30:22;6.62;;;5.50;;
49109;SDS011;34921;52.320;16.142;2023-08-20T14:32:49;7.28;;;5.50;;
49109;SDS011;34921;52.320;16.142;2023-08-20T14:35:17;7.50;;;6.22;;
49109;SDS011;34921;52.320;16.142;2023-08-20T14:37:47;7.87;;;6.10;;
49109;SDS011;34921;52.320;16.142;2023-08-20T14:40:15;8.50;;;6.85;;
49109;SDS011;34921;52.320;16.142;2023-08-20T14:42:43;8.23;;;7.15;;
49109;SDS011;34921;52.320;16.142;2023-08-20T14:45:11;8.30;;;7.50;;
49109;SDS011;34921;52.320;16.142;2023-08-20T14:47:39;9.00;;;7.05;;
49109;SDS011;34921;52.320;16.142;2023-08-20T14:50:07;7.78;;;6.97;;
49109;SDS011;34921;52.320;16.142;2023-08-20T14:52:35;8.43;;;7.60;;
49109;SDS011;34921;52.320;16.142;2023-08-20T14:55:03;8.93;;;7.92;;
49109;SDS011;34921;52.320;16.142;2023-08-20T14:57:35;8.33;;;7.12;;
49109;SDS011;34921;52.320;16.142;2023-08-20T15:02:35;9.30;;;7.97;;
49109;SDS011;34921;52.320;16.142;2023-08-20T15:05:03;9.68;;;7.53;;
49109;SDS011;34921;52.320;16.142;2023-08-20T15:07:31;8.68;;;7.60;;
49109;SDS011;34921;52.320;16.142;2023-08-20T15:10:00;10.80;;;7.20;;